Data for 11/19/2008

Time Sea-Level Adjusted Pressure Absolute Pressure Temperature Relative Humidity Dew Point   
(mb) (inHg) (mb) (inHg) (C) (F) (%) (C) (F)
00:05 1022 30.18 851 25.13 8 46.4 37 -5.6 21.9
00:10 1022 30.18 851 25.13 7.8 46 37 -5.9 21.4
00:15 1022 30.18 851 25.13 7.9 46.2 37 -5.7 21.7
00:20 1022 30.18 851 25.13 7.8 46.1 37 -6 21.3
00:25 1022 30.18 851 25.13 7.8 46.1 36 -6.4 20.4
00:30 1022 30.18 851 25.13 8.4 47.1 34 -6.5 20.3
00:35 1022 30.18 851 25.13 8.5 47.4 34 -6.5 20.3
00:40 1021 30.15 851 25.13 8.7 47.6 34 -6.3 20.6
00:45 1022 30.18 851 25.13 8.7 47.7 34 -6.3 20.6
00:50 1021 30.15 851 25.13 8.6 47.4 33 -6.7 20
00:55 1022 30.18 851 25.13 8.6 47.5 34 -6.5 20.4
01:00 1022 30.18 851 25.13 8.7 47.6 35 -6.1 21
01:05 1022 30.18 851 25.13 8.6 47.5 34 -6.4 20.5
01:10 1022 30.18 851 25.13 8.8 47.9 33 -6.6 20
01:15 1022 30.18 851 25.13 8.9 47.9 34 -6 21.3
01:20 1022 30.18 851 25.13 8.8 47.9 33 -6.4 20.5
01:25 1022 30.18 851 25.13 8.5 47.2 37 -5.5 22.1
01:30 1022 30.18 851 25.13 8.3 47 34 -6.8 19.8
01:35 1022 30.18 851 25.13 8.9 48.1 33 -6.5 20.2
01:40 1022 30.18 851 25.13 8.9 48 33 -6.7 20
01:45 1022 30.18 851 25.13 9 48.1 33 -6.2 20.8
01:50 1022 30.18 851 25.13 9.2 48.5 34 -5.8 21.6
01:55 1022 30.18 851 25.13 8.9 47.9 34 -6.1 21
02:00 1022 30.18 851 25.13 8.4 47.1 33 -6.8 19.8
02:05 1022 30.18 851 25.13 9 48.3 33 -6.2 20.9
02:10 1022 30.18 851 25.13 8.7 47.6 36 -5.6 21.9
02:15 1022 30.18 851 25.13 8.4 47 37 -5.4 22.4
02:20 1022 30.18 851 25.13 8.3 47 37 -5.4 22.2
02:25 1022 30.18 851 25.13 8.3 46.9 35 -6.5 20.4
02:30 1022 30.18 851 25.13 8.8 47.8 34 -6.2 20.8
02:35 1022 30.18 851 25.13 9 48.2 34 -6 21.2
02:40 1022 30.18 851 25.13 8.8 47.8 36 -5.5 22
02:45 1022 30.18 851 25.13 8.5 47.4 36 -5.5 22.1
02:50 1022 30.18 851 25.13 8.5 47.2 37 -5.3 22.5
02:55 1022 30.18 851 25.13 8.3 46.9 38 -5.3 22.4
03:00 1022 30.18 851 25.13 8.1 46.6 39 -4.9 23.2
03:05 1022 30.18 851 25.13 8.1 46.6 37 -5.6 22
03:10 1022 30.18 851 25.13 8.3 47 39 -4.9 23.1
03:15 1022 30.18 851 25.13 7.9 46.2 39 -5.3 22.5
03:20 1022 30.18 851 25.13 7.8 46.1 39 -5.4 22.3
03:25 1022 30.18 851 25.13 8 46.4 37 -5.7 21.8
03:30 1022 30.18 851 25.13 8.2 46.8 41 -4.1 24.7
03:35 1022 30.18 852 25.16 7.9 46.2 41 -4.5 23.9
03:40 1022 30.18 852 25.16 7.7 45.8 43 -4.3 24.3
03:45 1022 30.18 852 25.16 7.4 45.2 44 -4.1 24.6
03:50 1022 30.18 852 25.16 7 44.6 46 -4 24.9
03:55 1022 30.18 852 25.16 6.6 43.9 48 -3.7 25.3
04:00 1022 30.18 852 25.16 6 42.9 49 -3.9 24.9
04:05 1023 30.21 852 25.16 5.9 42.6 48 -4.2 24.5
04:10 1023 30.21 852 25.16 6.1 42.9 48 -4.2 24.4
04:15 1023 30.21 852 25.16 6.4 43.5 45 -4.7 23.5
04:20 1023 30.21 852 25.16 6.8 44.2 44 -4.8 23.4
04:25 1023 30.21 852 25.16 7 44.5 43 -4.9 23.2
04:30 1023 30.21 852 25.16 7 44.6 44 -4.5 23.8
04:35 1023 30.21 852 25.16 6.9 44.3 45 -4.4 24.2
04:40 1023 30.21 852 25.16 6.6 43.8 46 -4.3 24.3
04:45 1023 30.21 852 25.16 6.5 43.6 45 -4.5 23.9
04:50 1023 30.21 852 25.16 6.3 43.4 47 -4.2 24.5
04:55 1023 30.21 852 25.16 6.1 42.9 47 -4.4 24
05:00 1023 30.21 852 25.16 6.1 42.9 47 -4.4 24.1
05:05 1023 30.21 852 25.16 6 42.8 47 -4.5 24
05:10 1023 30.21 852 25.16 6.1 42.9 45 -5 23
05:15 1023 30.21 852 25.16 6.4 43.5 44 -4.9 23.2
05:20 1023 30.21 852 25.16 6.5 43.6 44 -5 23
05:25 1023 30.21 852 25.16 6.6 44 42 -5.3 22.4
05:30 1023 30.21 852 25.16 6.7 44.1 43 -5.1 22.7
05:35 1023 30.21 852 25.16 6.8 44.2 42 -5.2 22.7
05:40 1023 30.21 852 25.16 6.9 44.4 41 -5.4 22.2
05:45 1023 30.21 853 25.19 6.8 44.3 43 -5 22.9
05:50 1023 30.21 853 25.19 6.3 43.4 46 -4.5 24
05:55 1023 30.21 853 25.19 6 42.7 45 -5.1 22.8
06:00 1024 30.24 853 25.19 5.9 42.7 45 -5.2 22.6
06:05 1023 30.21 853 25.19 6 42.8 43 -5.5 22.1
06:10 1024 30.24 853 25.19 6.2 43.1 44 -5.2 22.7
06:15 1024 30.24 853 25.19 5.8 42.5 46 -4.8 23.3
06:20 1024 30.24 853 25.19 5.4 41.8 47 -5 22.9
06:25 1024 30.24 853 25.19 5.5 41.9 45 -5.5 22.2
06:30 1024 30.24 853 25.19 5.7 42.3 45 -5.4 22.4
06:35 1024 30.24 853 25.19 5.9 42.5 45 -5.3 22.5
06:40 1024 30.24 853 25.19 5.7 42.2 48 -4.4 24.1
06:45 1024 30.24 853 25.19 5.3 41.6 52 -3.6 25.5
06:50 1024 30.24 853 25.19 5.1 41.1 56 -3 26.6
06:55 1024 30.24 853 25.19 4.7 40.5 59 -2.7 27.2
07:00 1024 30.24 853 25.19 4.4 39.8 60 -2.6 27.3
07:05 1024 30.24 854 25.22 4.1 39.4 62 -2.5 27.4
07:10 1024 30.24 854 25.22 3.9 38.9 63 -2.4 27.6
07:15 1024 30.24 854 25.22 3.7 38.6 64 -2.4 27.6
07:20 1024 30.24 854 25.22 3.5 38.3 66 -2.3 27.8
07:25 1025 30.27 854 25.22 3.3 37.9 67 -2.3 27.9
07:30 1025 30.27 854 25.22 3.2 37.7 68 -2.2 28
07:35 1025 30.27 854 25.22 2.9 37.2 69 -2.2 28.1
07:40 1025 30.27 854 25.22 2.7 36.8 70 -2.2 28.1
07:45 1025 30.27 854 25.22 2.5 36.5 72 -2.1 28.2
07:50 1025 30.27 854 25.22 2.2 36 73 -2.1 28.3
07:55 1025 30.27 854 25.22 2 35.5 75 -2 28.3
08:00 1025 30.27 854 25.22 1.8 35.2 76 -2 28.4
08:05 1025 30.27 854 25.22 1.7 35 76 -2.1 28.2
08:10 1025 30.27 854 25.22 1.5 34.7 77 -2.1 28.3
08:15 1025 30.27 854 25.22 1.3 34.4 78 -2.1 28.2
08:20 1025 30.27 854 25.22 1.1 34 79 -2.2 28.1
08:25 1025 30.27 854 25.22 1 33.9 79 -2.2 28.1
08:30 1025 30.27 854 25.22 0.9 33.7 80 -2.2 28
08:35 1025 30.27 854 25.22 0.9 33.7 80 -2.1 28.2
08:40 1025 30.27 854 25.22 0.9 33.5 80 -2.2 28.1
08:45 1025 30.27 854 25.22 1 33.7 80 -2.2 28.1
08:50 1025 30.27 855 25.25 1.1 33.9 79 -2.3 27.9
08:55 1026 30.3 855 25.25 1.2 34.2 78 -2.3 27.9
09:00 1026 30.3 855 25.25 1.2 34.2 78 -2.2 28
09:05 1026 30.3 855 25.25 1.2 34.1 77 -2.4 27.8
09:10 1026 30.3 855 25.25 1.3 34.4 77 -2.2 28
09:15 1026 30.3 855 25.25 1.3 34.3 77 -2.2 28
09:20 1026 30.3 855 25.25 1.3 34.4 77 -2.3 27.9
09:25 1026 30.3 855 25.25 1.4 34.4 77 -2.3 27.9
09:30 1026 30.3 855 25.25 1.4 34.5 76 -2.3 27.8
09:35 1026 30.3 855 25.25 1.5 34.8 76 -2.2 28
09:40 1026 30.3 855 25.25 1.5 34.7 76 -2.2 28
09:45 1026 30.3 855 25.25 1.4 34.6 77 -2.2 28
09:50 1026 30.3 856 25.28 1.4 34.5 77 -2.3 27.9
09:55 1026 30.3 856 25.28 1.5 34.7 76 -2.2 28
10:00 1026 30.3 856 25.28 1.6 34.9 75 -2.4 27.6
10:05 1027 30.33 856 25.28 1.7 35 75 -2.4 27.7
10:10 1027 30.33 856 25.28 1.7 35 74 -2.5 27.5
10:15 1027 30.33 856 25.28 1.5 34.7 75 -2.5 27.5
10:20 1027 30.33 856 25.28 1.4 34.5 75 -2.5 27.5
10:25 1027 30.33 856 25.28 1.3 34.4 75 -2.6 27.3
10:30 1027 30.33 856 25.28 1.5 34.6 75 -2.6 27.4
10:35 1027 30.33 856 25.28 1.5 34.7 74 -2.5 27.4
10:40 1027 30.33 856 25.28 1.5 34.8 75 -2.5 27.6
10:45 1027 30.33 856 25.28 1.5 34.8 74 -2.6 27.3
10:50 1027 30.33 856 25.28 1.6 34.8 74 -2.6 27.3
10:55 1027 30.33 857 25.31 1.6 34.8 74 -2.5 27.4
11:00 1027 30.33 857 25.31 1.3 34.4 74 -2.7 27.1
11:05 1027 30.33 857 25.31 1.3 34.3 75 -2.7 27.1
11:10 1027 30.33 857 25.31 1.4 34.5 74 -2.7 27.1
11:15 1027 30.33 857 25.31 1.5 34.6 74 -2.7 27.1
11:20 1027 30.33 857 25.31 1.5 34.8 73 -2.8 27
11:25 1028 30.36 857 25.31 1.5 34.8 74 -2.6 27.3
11:30 1028 30.36 857 25.31 1.4 34.4 74 -2.9 26.8
11:35 1028 30.36 857 25.31 1.6 34.9 72 -3 26.6
11:40 1028 30.36 857 25.31 1.6 34.9 73 -2.8 27
11:45 1028 30.36 857 25.31 1.7 35.1 72 -2.9 26.9
11:50 1028 30.36 857 25.31 1.8 35.2 72 -2.7 27.1
11:55 1028 30.36 857 25.31 1.5 34.7 73 -2.9 26.8
12:00 1028 30.36 857 25.31 1.5 34.8 72 -2.9 26.8
12:05 1028 30.36 857 25.31 1.6 35 72 -3 26.7
12:10 1028 30.36 857 25.31 1.7 35.1 72 -2.8 27
12:15 1028 30.36 857 25.31 1.6 34.8 72 -2.9 26.8
12:20 1028 30.36 857 25.31 1.6 34.8 72 -3 26.7
12:25 1028 30.36 857 25.31 1.4 34.6 72 -3 26.5
12:30 1028 30.36 857 25.31 1.5 34.7 71 -3.1 26.4
12:35 1028 30.36 857 25.31 1.5 34.8 72 -3.1 26.5
12:40 1028 30.36 857 25.31 1.6 34.9 71 -3.1 26.4
12:45 1028 30.36 857 25.31 1.7 35.1 71 -2.9 26.7
12:50 1028 30.36 857 25.31 1.6 34.9 70 -3.2 26.3
12:55 1028 30.36 857 25.31 1.6 34.9 71 -3.1 26.3
13:00 1028 30.36 857 25.31 1.7 35.1 70 -3.1 26.4
13:05 1028 30.36 857 25.31 1.8 35.2 70 -3 26.5
13:10 1028 30.36 857 25.31 1.8 35.3 70 -3.1 26.5
13:15 1028 30.36 857 25.31 1.9 35.5 70 -3 26.6
13:20 1028 30.36 857 25.31 1.9 35.4 70 -3 26.7
13:25 1028 30.36 857 25.31 1.8 35.2 71 -2.9 26.7
13:30 1028 30.36 857 25.31 1.7 35.1 71 -3 26.7
13:35 1028 30.36 858 25.34 1.5 34.8 72 -3 26.7
13:40 1028 30.36 858 25.34 1.5 34.7 72 -2.9 26.7
13:45 1028 30.36 858 25.34 1.5 34.7 72 -3 26.6
13:50 1028 30.36 857 25.31 1.4 34.5 73 -3 26.6
13:55 1028 30.36 858 25.34 1.3 34.4 73 -2.9 26.7
14:00 1028 30.36 858 25.34 1.3 34.3 73 -3 26.6
14:05 1028 30.36 858 25.34 1.2 34.2 74 -2.9 26.8
14:10 1028 30.36 858 25.34 1.2 34.2 74 -2.8 26.9
14:15 1028 30.36 858 25.34 1.1 34 75 -2.8 27
14:20 1028 30.36 858 25.34 1.1 33.9 75 -2.8 26.9
14:25 1028 30.36 858 25.34 1 33.8 76 -2.8 27
14:30 1029 30.39 858 25.34 0.9 33.7 76 -2.7 27.1
14:35 1029 30.39 858 25.34 0.9 33.6 77 -2.7 27.1
14:40 1029 30.39 858 25.34 0.9 33.6 76 -2.8 27
14:45 1029 30.39 858 25.34 0.9 33.6 77 -2.7 27.1
14:50 1029 30.39 858 25.34 0.9 33.6 76 -2.8 27
14:55 1029 30.39 858 25.34 0.9 33.6 76 -2.8 26.9
15:00 1029 30.39 858 25.34 0.8 33.4 78 -2.7 27.2
15:05 1029 30.39 858 25.34 0.8 33.4 78 -2.6 27.3
15:10 1029 30.39 858 25.34 0.7 33.3 77 -2.8 26.9
15:15 1029 30.39 859 25.37 0.7 33.2 78 -2.7 27.2
15:20 1030 30.42 859 25.37 0.7 33.3 78 -2.7 27.1
15:25 1030 30.42 859 25.37 0.7 33.3 77 -2.8 26.9
15:30 1030 30.42 859 25.37 0.7 33.2 80 -2.4 27.6
15:35 1030 30.42 859 25.37 0.5 32.9 81 -2.3 27.8
15:40 1030 30.42 859 25.37 0.4 32.7 83 -2.1 28.2
15:45 1030 30.42 859 25.37 0.3 32.5 84 -2.1 28.2
15:50 1030 30.42 859 25.37 0.2 32.3 84 -2.2 28.1
15:55 1030 30.42 859 25.37 0.2 32.3 84 -2.2 28
16:00 1030 30.42 859 25.37 0.2 32.3 84 -2.3 27.9
16:05 1030 30.42 859 25.37 0.2 32.4 83 -2.4 27.7
16:10 1030 30.42 859 25.37 0.3 32.5 82 -2.5 27.5
16:15 1030 30.42 859 25.37 0.3 32.6 82 -2.4 27.6
16:20 1030 30.42 859 25.37 0.3 32.6 81 -2.6 27.3
16:25 1030 30.42 859 25.37 0.3 32.5 82 -2.4 27.7
16:30 1030 30.42 859 25.37 0.3 32.5 83 -2.4 27.7
16:35 1030 30.42 859 25.37 0.2 32.4 82 -2.6 27.4
16:40 1030 30.42 859 25.37 0.1 32.2 82 -2.6 27.3
16:45 1030 30.42 860 25.4 0 32 83 -2.6 27.4
16:50 1030 30.42 860 25.4 -0 32 82 -2.7 27.2
16:55 1030 30.42 860 25.4 -0 31.9 82 -2.7 27.2
17:00 1030 30.42 860 25.4 -0 32 82 -2.8 27
17:05 1031 30.45 860 25.4 -0 32 82 -2.7 27.1
17:10 1031 30.45 860 25.4 -0 31.9 82 -2.8 27
17:15 1031 30.45 860 25.4 -0.1 31.8 82 -2.8 27
17:20 1031 30.45 860 25.4 -0.1 31.8 82 -2.8 27
17:25 1031 30.45 860 25.4 -0.1 31.7 82 -2.9 26.7
17:30 1031 30.45 860 25.4 -0.2 31.7 81 -3 26.5
17:35 1031 30.45 860 25.4 -0.1 31.8 81 -3 26.5
17:40 1031 30.45 860 25.4 -0.1 31.8 80 -3.1 26.4
17:45 1031 30.45 860 25.4 -0.1 31.8 80 -3.1 26.5
17:50 1031 30.45 860 25.4 -0.1 31.9 81 -3 26.5
17:55 1031 30.45 860 25.4 -0 31.9 80 -3.1 26.4
18:00 1031 30.45 860 25.4 -0.1 31.9 80 -3.2 26.3
18:05 1031 30.45 860 25.4 -0.1 31.9 79 -3.2 26.2
18:10 1031 30.45 860 25.4 -0 31.9 79 -3.2 26.2
18:15 1031 30.45 861 25.43 -0 31.9 78 -3.3 26
18:20 1031 30.45 861 25.43 0 32 77 -3.5 25.8
18:25 1031 30.45 861 25.43 0.1 32.2 77 -3.5 25.7
18:30 1031 30.45 861 25.43 0.1 32.2 76 -3.6 25.5
18:35 1032 30.47 861 25.43 0.1 32.2 77 -3.5 25.7
18:40 1032 30.47 861 25.43 0 32.1 77 -3.5 25.8
18:45 1032 30.47 861 25.43 -0 31.9 78 -3.4 25.9
18:50 1032 30.47 861 25.43 -0.2 31.7 79 -3.3 26
18:55 1032 30.47 861 25.43 -0.3 31.5 79 -3.4 25.9
19:00 1032 30.47 861 25.43 -0.3 31.4 80 -3.4 25.9
19:05 1032 30.47 861 25.43 -0.4 31.3 80 -3.4 25.9
19:10 1032 30.47 861 25.43 -0.5 31.2 81 -3.4 25.9
19:15 1032 30.47 861 25.43 -0.5 31.1 81 -3.5 25.8
19:20 1032 30.47 861 25.43 -0.6 31 81 -3.4 25.8
19:25 1032 30.47 861 25.43 -0.7 30.8 82 -3.4 25.8
19:30 1032 30.47 861 25.43 -0.7 30.7 82 -3.4 25.9
19:35 1032 30.47 861 25.43 -0.8 30.6 83 -3.4 25.9
19:40 1032 30.47 861 25.43 -0.9 30.5 83 -3.3 26
19:45 1032 30.47 861 25.43 -0.9 30.3 84 -3.3 26.1
19:50 1032 30.47 861 25.43 -1 30.2 85 -3.2 26.2
19:55 1032 30.47 861 25.43 -1 30.2 84 -3.3 26
20:00 1032 30.47 861 25.43 -1 30.2 84 -3.3 26
20:05 1032 30.47 861 25.43 -1 30.2 84 -3.3 26
20:10 1032 30.47 861 25.43 -1 30.2 84 -3.3 26
20:15 1032 30.47 861 25.43 -1 30.1 85 -3.3 26.1
20:20 1032 30.47 861 25.43 -1.1 29.9 85 -3.4 26
20:25 1032 30.47 861 25.43 -1.2 29.9 85 -3.4 25.9
20:30 1032 30.47 861 25.43 -1.2 29.8 85 -3.4 25.8
20:35 1032 30.47 861 25.43 -1.3 29.7 84 -3.6 25.6
20:40 1032 30.47 861 25.43 -1.3 29.7 85 -3.5 25.7
20:45 1032 30.47 861 25.43 -1.3 29.6 85 -3.5 25.7
20:50 1032 30.47 862 25.45 -1.4 29.5 86 -3.5 25.7
20:55 1032 30.47 862 25.45 -1.4 29.5 85 -3.6 25.6
21:00 1032 30.47 862 25.45 -1.5 29.4 86 -3.6 25.5
21:05 1033 30.5 862 25.45 -1.5 29.3 86 -3.6 25.5
21:10 1033 30.5 862 25.45 -1.5 29.3 85 -3.7 25.4
21:15 1033 30.5 862 25.45 -1.5 29.3 85 -3.7 25.4
21:20 1033 30.5 862 25.45 -1.6 29.2 86 -3.7 25.4
21:25 1033 30.5 862 25.45 -1.7 29 87 -3.6 25.6
21:30 1033 30.5 862 25.45 -1.8 28.8 87 -3.6 25.5
21:35 1033 30.5 862 25.45 -1.8 28.7 88 -3.6 25.5
21:40 1033 30.5 862 25.45 -1.8 28.7 88 -3.5 25.6
21:45 1033 30.5 862 25.45 -1.8 28.7 89 -3.5 25.7
21:50 1033 30.5 862 25.45 -1.8 28.7 89 -3.4 25.9
21:55 1033 30.5 862 25.45 -1.8 28.8 89 -3.4 25.9
22:00 1033 30.5 862 25.45 -1.8 28.8 88 -3.5 25.7
22:05 1033 30.5 862 25.45 -1.7 29 87 -3.6 25.5
22:10 1033 30.5 862 25.45 -1.6 29 86 -3.7 25.4
22:15 1033 30.5 862 25.45 -1.6 29.1 86 -3.6 25.5
22:20 1033 30.5 862 25.45 -1.7 29 87 -3.6 25.6
22:25 1033 30.5 862 25.45 -1.7 28.9 87 -3.6 25.6
22:30 1033 30.5 862 25.45 -1.8 28.8 88 -3.5 25.7
22:35 1033 30.5 862 25.45 -1.8 28.7 88 -3.6 25.5
22:40 1033 30.5 862 25.45 -1.8 28.7 88 -3.5 25.6
22:45 1033 30.5 862 25.45 -1.9 28.7 87 -3.7 25.4
22:50 1033 30.5 862 25.45 -1.8 28.7 88 -3.6 25.6
22:55 1033 30.5 862 25.45 -1.9 28.7 88 -3.7 25.4
23:00 1033 30.5 862 25.45 -1.9 28.6 87 -3.8 25.2
23:05 1033 30.5 862 25.45 -1.8 28.7 86 -3.8 25.1
23:10 1033 30.5 862 25.45 -1.8 28.7 86 -3.9 25
23:15 1033 30.5 862 25.45 -1.8 28.7 86 -3.8 25.2
23:20 1033 30.5 862 25.45 -1.9 28.7 87 -3.8 25.2
23:25 1033 30.5 862 25.45 -1.9 28.6 86 -4 24.9
23:30 1033 30.5 862 25.45 -1.9 28.7 86 -3.9 24.9
23:35 1033 30.5 862 25.45 -1.9 28.6 87 -3.8 25.1
23:40 1033 30.5 862 25.45 -2 28.5 87 -3.8 25.1
23:45 1033 30.5 862 25.45 -2 28.4 87 -3.9 25
23:50 1033 30.5 862 25.45 -1.9 28.5 85 -4.1 24.6
23:55 1033 30.5 862 25.45 -1.8 28.7 85 -4.1 24.6
24:00 1033 30.5 862 25.45 -1.8 28.7 85 -4.1 24.7